createdAt,value
2023-04-17T00:01:55.734Z,67.40
2023-04-17T00:04:23.473Z,67.10
2023-04-17T00:06:53.940Z,66.66
2023-04-17T00:09:21.395Z,66.93
2023-04-17T00:11:48.890Z,67.17
2023-04-17T00:14:16.383Z,67.27
2023-04-17T00:16:43.894Z,67.64
2023-04-17T00:19:11.938Z,67.18
2023-04-17T00:21:39.606Z,68.15
2023-04-17T00:24:07.351Z,69.12
2023-04-17T00:26:34.836Z,69.91
2023-04-17T00:29:02.828Z,69.41
2023-04-17T00:31:31.466Z,68.31
2023-04-17T00:34:01.366Z,68.05
2023-04-17T00:36:31.828Z,68.08
2023-04-17T00:38:59.349Z,68.01
2023-04-17T00:41:26.905Z,68.18
2023-04-17T00:43:54.360Z,68.14
2023-04-17T00:46:22.135Z,67.26
2023-04-17T00:48:49.738Z,67.19
2023-04-17T00:51:17.308Z,67.20
2023-04-17T00:53:45.850Z,67.69
2023-04-17T00:56:13.681Z,67.98
2023-04-17T00:58:41.371Z,67.61
2023-04-17T01:01:08.811Z,67.94
2023-04-17T01:03:36.559Z,68.56
2023-04-17T01:06:04.202Z,68.84
2023-04-17T01:08:42.151Z,68.88
2023-04-17T01:11:10.816Z,68.46
2023-04-17T01:13:48.729Z,68.60
2023-04-17T01:16:18.142Z,68.08
2023-04-17T01:18:48.343Z,68.57
2023-04-17T01:21:16.092Z,68.53
2023-04-17T01:23:50.000Z,69.94
2023-04-17T01:26:18.876Z,70.26
2023-04-17T01:28:57.798Z,69.46
2023-04-17T01:31:27.112Z,68.89
2023-04-17T01:33:55.449Z,68.47
2023-04-17T01:36:22.903Z,68.37
2023-04-17T01:38:50.337Z,68.98
2023-04-17T01:41:17.929Z,68.39
2023-04-17T01:43:47.473Z,69.05
2023-04-17T01:46:15.107Z,68.97
2023-04-17T01:48:42.650Z,69.54
2023-04-17T01:51:10.172Z,69.72
2023-04-17T01:53:40.204Z,69.61
2023-04-17T01:56:07.815Z,69.24
2023-04-17T01:58:35.549Z,69.65
2023-04-17T02:01:02.963Z,69.72
2023-04-17T02:03:31.492Z,69.22
2023-04-17T02:05:59.134Z,69.08
2023-04-17T02:08:27.212Z,69.00
2023-04-17T02:10:54.616Z,68.87
2023-04-17T02:13:22.093Z,68.55
2023-04-17T02:15:49.574Z,69.19
2023-04-17T02:18:17.152Z,70.26
2023-04-17T02:20:44.589Z,69.32
2023-04-17T02:23:12.320Z,69.81
2023-04-17T02:25:39.733Z,70.72
2023-04-17T02:28:07.248Z,70.51
2023-04-17T02:30:35.179Z,70.11
2023-04-17T02:33:02.716Z,70.29
2023-04-17T02:35:32.489Z,69.79
2023-04-17T02:38:00.230Z,70.86
2023-04-17T02:40:28.324Z,71.34
2023-04-17T02:43:01.725Z,71.54
2023-04-17T02:45:30.722Z,71.48
2023-04-17T02:47:58.315Z,72.26
2023-04-17T02:50:25.849Z,71.87
2023-04-17T02:53:07.688Z,72.10
2023-04-17T02:55:36.056Z,71.83
2023-04-17T02:58:03.474Z,70.89
2023-04-17T03:00:30.860Z,70.11
2023-04-17T03:02:59.744Z,70.26
2023-04-17T03:05:30.633Z,71.34
2023-04-17T03:08:00.360Z,71.44
2023-04-17T03:10:32.257Z,71.18
2023-04-17T03:12:59.677Z,71.29
2023-04-17T03:15:27.220Z,70.61
2023-04-17T03:17:54.681Z,70.51
2023-04-17T03:20:22.200Z,70.65
2023-04-17T03:22:49.669Z,71.06
2023-04-17T03:25:17.108Z,70.96
2023-04-17T03:27:49.776Z,71.30
2023-04-17T03:30:19.404Z,72.16
2023-04-17T03:32:49.701Z,72.86
2023-04-17T03:35:17.136Z,72.52
2023-04-17T03:37:44.679Z,73.12
2023-04-17T03:40:13.849Z,72.50
2023-04-17T03:42:44.274Z,71.92
2023-04-17T03:45:12.138Z,71.65
2023-04-17T03:47:39.628Z,71.85
2023-04-17T03:50:08.067Z,71.65
2023-04-17T03:52:40.423Z,71.48
2023-04-17T03:55:08.453Z,71.37
2023-04-17T03:57:35.994Z,71.85
2023-04-17T04:00:07.754Z,71.81
2023-04-17T04:02:46.711Z,70.37
2023-04-17T04:05:18.110Z,70.77
2023-04-17T04:07:45.777Z,70.64
2023-04-17T04:10:18.933Z,70.80
2023-04-17T04:12:46.299Z,71.06
2023-04-17T04:15:15.075Z,72.44
2023-04-17T04:17:44.353Z,71.75
2023-04-17T04:20:12.180Z,71.39
2023-04-17T04:22:41.653Z,71.51
2023-04-17T04:25:09.318Z,73.27
2023-04-17T04:27:49.716Z,73.16
2023-04-17T04:30:25.470Z,72.19
2023-04-17T04:32:57.112Z,72.11
2023-04-17T04:35:30.317Z,72.08
2023-04-17T04:38:02.269Z,71.17
2023-04-17T04:40:38.241Z,70.94
2023-04-17T04:43:07.638Z,71.55
2023-04-17T04:45:44.428Z,71.46
2023-04-17T04:48:11.782Z,71.19
2023-04-17T04:50:39.239Z,71.86
2023-04-17T04:53:06.724Z,71.82
2023-04-17T04:55:45.826Z,72.30
2023-04-17T04:58:13.436Z,72.08
2023-04-17T05:00:41.306Z,72.72
2023-04-17T05:03:12.994Z,72.58
2023-04-17T05:05:41.881Z,70.61
2023-04-17T05:08:12.165Z,71.37
2023-04-17T05:10:40.077Z,71.28
2023-04-17T05:13:08.553Z,71.58
2023-04-17T05:15:36.016Z,71.92
2023-04-17T05:18:03.958Z,70.46
2023-04-17T05:20:34.067Z,69.84
2023-04-17T05:23:01.661Z,69.37
2023-04-17T05:25:29.216Z,69.52
2023-04-17T05:27:58.378Z,69.23
2023-04-17T05:30:25.927Z,69.02
2023-04-17T05:33:04.869Z,69.04
2023-04-17T05:35:46.539Z,68.31
2023-04-17T05:38:14.226Z,68.86
2023-04-17T05:40:41.637Z,68.43
2023-04-17T05:43:10.756Z,68.27
2023-04-17T05:45:41.353Z,68.53
2023-04-17T05:48:10.140Z,67.61
2023-04-17T05:50:37.781Z,66.64
2023-04-17T05:53:06.779Z,67.69
2023-04-17T05:55:39.622Z,68.22
2023-04-17T06:00:45.212Z,69.47
2023-04-17T06:03:18.328Z,68.84
2023-04-17T06:05:47.234Z,68.25
2023-04-17T06:08:14.731Z,68.67
2023-04-17T06:10:42.241Z,69.74
2023-04-17T06:13:09.907Z,69.81
2023-04-17T06:15:37.362Z,69.79
2023-04-17T06:18:05.106Z,69.84
2023-04-17T06:20:32.532Z,69.92
2023-04-17T06:23:03.228Z,69.80
2023-04-17T06:25:30.625Z,69.16
2023-04-17T06:27:58.161Z,68.38
2023-04-17T06:30:25.600Z,67.57
2023-04-17T06:32:55.144Z,68.02
2023-04-17T06:35:22.720Z,67.25
2023-04-17T06:37:55.613Z,67.29
2023-04-17T06:40:23.404Z,67.09
2023-04-17T06:42:52.160Z,66.61
2023-04-17T06:45:21.594Z,64.80
2023-04-17T06:47:49.021Z,63.50
2023-04-17T06:50:20.674Z,63.63
2023-04-17T06:52:48.084Z,64.09
2023-04-17T06:55:15.645Z,65.05
2023-04-17T06:57:43.109Z,64.71
2023-04-17T07:00:11.295Z,65.12
2023-04-17T07:02:38.806Z,64.84
2023-04-17T07:05:07.245Z,65.53
2023-04-17T07:07:36.066Z,65.64
2023-04-17T07:10:04.339Z,65.37
2023-04-17T07:12:31.921Z,65.72
2023-04-17T07:14:59.642Z,65.03
2023-04-17T07:17:27.555Z,64.65
2023-04-17T07:19:55.140Z,63.53
2023-04-17T07:22:23.928Z,63.45
2023-04-17T07:24:52.240Z,63.21
2023-04-17T07:27:19.634Z,63.34
2023-04-17T07:29:52.890Z,62.66
2023-04-17T07:32:21.724Z,62.29
2023-04-17T07:34:49.123Z,62.35
2023-04-17T07:37:16.700Z,62.48
2023-04-17T07:39:44.902Z,62.23
2023-04-17T07:42:12.263Z,62.71
2023-04-17T07:44:39.576Z,62.81
2023-04-17T07:47:07.069Z,62.41
2023-04-17T07:49:35.229Z,62.37
2023-04-17T07:52:02.775Z,62.20
2023-04-17T07:54:31.325Z,60.65
2023-04-17T07:57:02.993Z,60.15
2023-04-17T07:59:30.714Z,59.26
2023-04-17T08:01:58.391Z,57.91
2023-04-17T08:04:26.342Z,54.99
2023-04-17T08:06:53.842Z,52.63
2023-04-17T08:09:22.234Z,53.11
2023-04-17T08:11:57.051Z,51.46
2023-04-17T08:14:25.699Z,49.93
2023-04-17T08:16:53.275Z,50.43
2023-04-17T08:19:20.710Z,48.49
2023-04-17T08:21:48.838Z,48.84
2023-04-17T08:24:19.523Z,48.96
2023-04-17T08:26:47.972Z,48.70
2023-04-17T08:29:15.860Z,47.17
2023-04-17T08:31:43.551Z,47.31
2023-04-17T08:34:14.788Z,47.06
2023-04-17T08:36:43.317Z,47.55
2023-04-17T08:39:12.598Z,46.51
2023-04-17T08:41:49.184Z,45.72
2023-04-17T08:44:20.842Z,42.54
2023-04-17T08:46:48.936Z,42.43
2023-04-17T08:49:16.446Z,41.74
2023-04-17T08:51:43.961Z,41.38
2023-04-17T08:54:11.386Z,41.09
2023-04-17T08:56:38.788Z,41.51
2023-04-17T08:59:06.269Z,41.79
2023-04-17T09:01:34.943Z,42.53
2023-04-17T09:04:02.711Z,40.91
2023-04-17T09:06:49.515Z,41.57
2023-04-17T09:09:17.503Z,42.36
2023-04-17T09:11:44.859Z,42.31
2023-04-17T09:14:30.741Z,42.98
2023-04-17T09:16:58.152Z,43.17
2023-04-17T09:19:25.938Z,44.02
2023-04-17T09:21:54.645Z,44.15
2023-04-17T09:24:35.541Z,44.30
2023-04-17T09:27:23.601Z,44.07
2023-04-17T09:30:05.070Z,43.85
2023-04-17T09:32:34.357Z,44.29
2023-04-17T09:35:04.047Z,44.06
2023-04-17T09:37:52.472Z,45.06
2023-04-17T09:40:22.189Z,45.90
2023-04-17T09:43:01.307Z,46.26
2023-04-17T09:45:35.773Z,45.96
2023-04-17T09:48:10.862Z,46.00
2023-04-17T09:50:39.487Z,46.03
2023-04-17T09:53:08.321Z,45.79
2023-04-17T09:55:38.067Z,45.13
2023-04-17T09:58:07.558Z,45.40
2023-04-17T10:00:36.622Z,45.31
2023-04-17T10:03:05.068Z,45.88
2023-04-17T10:05:32.907Z,46.02
2023-04-17T10:08:01.533Z,45.38
2023-04-17T10:10:32.431Z,44.38
2023-04-17T10:13:02.530Z,42.11
2023-04-17T10:15:30.762Z,41.63
2023-04-17T10:18:23.447Z,41.06
2023-04-17T10:20:53.669Z,39.95
2023-04-17T10:23:35.099Z,39.13
2023-04-17T10:26:30.084Z,38.93
2023-04-17T10:28:57.981Z,39.04
2023-04-17T10:32:02.919Z,39.29
2023-04-17T10:34:37.890Z,38.92
2023-04-17T10:37:05.414Z,38.70
2023-04-17T10:39:53.258Z,36.64
2023-04-17T10:42:22.279Z,36.59
2023-04-17T10:44:52.290Z,35.69
2023-04-17T10:47:21.392Z,36.39
2023-04-17T10:49:54.649Z,36.01
2023-04-17T10:52:34.722Z,37.01
2023-04-17T10:55:06.620Z,37.28
2023-04-17T10:57:58.258Z,37.64
2023-04-17T11:00:32.769Z,38.17
2023-04-17T11:03:02.424Z,38.19
2023-04-17T11:05:34.002Z,37.68
2023-04-17T11:08:01.971Z,37.33
2023-04-17T11:10:36.459Z,36.86
2023-04-17T11:13:03.952Z,37.02
2023-04-17T11:15:34.299Z,37.97
2023-04-17T11:18:03.320Z,37.38
2023-04-17T11:20:32.653Z,37.46
2023-04-17T11:23:04.635Z,36.83
2023-04-17T11:25:34.419Z,35.26
2023-04-17T11:28:05.312Z,35.19
2023-04-17T11:30:35.620Z,34.88
2023-04-17T11:33:05.585Z,35.66
2023-04-17T11:35:35.555Z,35.76
2023-04-17T11:38:23.171Z,36.30
2023-04-17T11:40:55.406Z,36.53
2023-04-17T11:43:23.828Z,36.33
2023-04-17T11:45:53.601Z,35.68
2023-04-17T11:48:24.484Z,33.25
2023-04-17T11:50:57.353Z,33.15
2023-04-17T11:53:25.153Z,31.92
2023-04-17T11:56:11.254Z,31.95
2023-04-17T11:58:49.530Z,32.60
2023-04-17T12:01:18.411Z,34.94
2023-04-17T12:03:48.007Z,37.13
2023-04-17T12:06:16.386Z,37.79
2023-04-17T12:08:47.246Z,38.04
2023-04-17T12:11:18.124Z,38.73
2023-04-17T12:13:45.531Z,38.19
2023-04-17T12:16:13.092Z,38.15
2023-04-17T12:18:40.551Z,38.95
2023-04-17T12:21:07.957Z,38.71
2023-04-17T12:23:35.440Z,37.69
2023-04-17T12:26:03.160Z,38.27
2023-04-17T12:28:31.189Z,37.79
2023-04-17T12:30:58.692Z,37.69
2023-04-17T12:33:26.342Z,37.64
2023-04-17T12:35:54.267Z,37.69
2023-04-17T12:38:23.264Z,37.66
2023-04-17T12:40:50.632Z,37.92
2023-04-17T12:43:18.200Z,38.37
2023-04-17T12:45:46.275Z,37.34
2023-04-17T12:48:14.853Z,37.08
2023-04-17T12:50:43.656Z,36.53
2023-04-17T12:53:13.624Z,35.68
2023-04-17T12:55:43.693Z,36.36
2023-04-17T12:58:13.137Z,36.50
2023-04-17T13:00:44.336Z,35.25
2023-04-17T13:03:12.405Z,35.81
2023-04-17T13:05:40.088Z,36.65
2023-04-17T13:08:33.144Z,36.71
2023-04-17T13:11:03.720Z,36.97
2023-04-17T13:13:31.135Z,37.72
2023-04-17T13:15:58.836Z,37.53
2023-04-17T13:18:26.493Z,37.80
2023-04-17T13:20:53.860Z,37.51
2023-04-17T13:23:21.254Z,37.42
2023-04-17T13:25:48.655Z,37.29
2023-04-17T13:28:16.013Z,37.36
2023-04-17T13:30:43.446Z,37.30
2023-04-17T13:33:10.980Z,36.76
2023-04-17T13:35:38.431Z,37.33
2023-04-17T13:38:06.473Z,37.32
2023-04-17T13:40:33.842Z,37.46
2023-04-17T13:43:01.517Z,36.90
2023-04-17T13:45:29.947Z,36.68
2023-04-17T13:47:57.433Z,36.93
2023-04-17T13:50:25.007Z,36.09
2023-04-17T13:52:52.500Z,37.03
2023-04-17T13:55:19.964Z,37.16
2023-04-17T13:57:47.413Z,37.47
2023-04-17T14:00:15.278Z,37.23
2023-04-17T14:02:43.060Z,36.99
2023-04-17T14:05:10.590Z,36.86
2023-04-17T14:07:38.341Z,37.52
2023-04-17T14:10:06.720Z,37.76
2023-04-17T14:12:34.172Z,37.33
2023-04-17T14:15:01.594Z,38.17
2023-04-17T14:17:29.171Z,38.53
2023-04-17T14:19:56.889Z,38.23
2023-04-17T14:22:24.354Z,38.00
2023-04-17T14:24:51.806Z,38.22
2023-04-17T14:27:19.165Z,38.64
2023-04-17T14:29:46.599Z,38.29
2023-04-17T14:32:14.013Z,38.81
2023-04-17T14:34:41.427Z,38.54
2023-04-17T14:37:08.921Z,39.14
2023-04-17T14:39:38.357Z,38.90
2023-04-17T14:42:05.817Z,39.07
2023-04-17T14:44:33.262Z,39.50
2023-04-17T14:47:00.765Z,39.79
2023-04-17T14:49:29.616Z,40.14
2023-04-17T14:51:56.981Z,39.48
2023-04-17T14:54:24.433Z,39.43
2023-04-17T14:56:51.910Z,40.05
2023-04-17T14:59:19.459Z,40.04
2023-04-17T15:01:46.985Z,39.92
2023-04-17T15:04:15.079Z,39.11
2023-04-17T15:06:43.084Z,39.22
2023-04-17T15:09:10.670Z,39.11
2023-04-17T15:11:38.176Z,39.40
2023-04-17T15:14:05.558Z,39.60
2023-04-17T15:16:32.998Z,39.48
2023-04-17T15:19:00.422Z,39.23
2023-04-17T15:21:27.708Z,39.23
2023-04-17T15:23:58.151Z,38.77
2023-04-17T15:26:25.776Z,38.52
2023-04-17T15:28:53.147Z,38.03
2023-04-17T15:31:20.674Z,38.08
2023-04-17T15:33:48.071Z,38.32
2023-04-17T15:36:15.612Z,38.51
2023-04-17T15:38:44.035Z,38.94
2023-04-17T15:41:11.433Z,39.74
2023-04-17T15:43:39.128Z,40.56
2023-04-17T15:46:06.521Z,40.62
2023-04-17T15:48:33.815Z,40.73
2023-04-17T15:51:02.984Z,41.44
2023-04-17T15:53:30.314Z,41.85
2023-04-17T15:55:57.644Z,41.32
2023-04-17T15:58:25.012Z,41.21
2023-04-17T16:00:52.304Z,41.50
2023-04-17T16:03:19.762Z,41.63
2023-04-17T16:05:47.242Z,41.65
2023-04-17T16:08:15.291Z,41.21
2023-04-17T16:10:42.690Z,41.57
2023-04-17T16:13:10.060Z,41.60
2023-04-17T16:15:37.458Z,42.31
2023-04-17T16:18:05.124Z,42.97
2023-04-17T16:20:32.574Z,42.95
2023-04-17T16:22:59.867Z,42.89
2023-04-17T16:25:27.246Z,43.13
2023-04-17T16:27:54.621Z,42.16
2023-04-17T16:30:22.041Z,42.44
2023-04-17T16:32:50.272Z,42.62
2023-04-17T16:35:17.710Z,42.38
2023-04-17T16:37:45.158Z,42.36
2023-04-17T16:40:13.030Z,42.53
2023-04-17T16:42:40.703Z,42.66
2023-04-17T16:45:08.352Z,42.52
2023-04-17T16:47:35.829Z,42.60
2023-04-17T16:50:03.699Z,42.86
2023-04-17T16:52:30.994Z,43.52
2023-04-17T16:54:58.738Z,43.98
2023-04-17T16:57:31.041Z,44.37
2023-04-17T16:59:59.079Z,44.83
2023-04-17T17:02:26.545Z,45.37
2023-04-17T17:04:58.594Z,45.62
2023-04-17T17:07:27.159Z,46.11
2023-04-17T17:09:54.551Z,46.09
2023-04-17T17:12:22.030Z,46.21
2023-04-17T17:14:49.335Z,46.33
2023-04-17T17:17:16.656Z,46.37
2023-04-17T17:19:43.957Z,46.49
2023-04-17T17:22:11.310Z,46.57
2023-04-17T17:24:38.700Z,47.09
2023-04-17T17:27:06.152Z,46.91
2023-04-17T17:29:33.544Z,47.25
2023-04-17T17:32:00.922Z,47.28
2023-04-17T17:34:28.282Z,47.10
2023-04-17T17:36:55.725Z,47.02
2023-04-17T17:39:23.063Z,46.83
2023-04-17T17:41:50.584Z,46.84
2023-04-17T17:44:18.141Z,46.72
2023-04-17T17:46:45.589Z,47.42
2023-04-17T17:49:12.968Z,47.35
2023-04-17T17:51:40.418Z,48.08
2023-04-17T17:54:08.051Z,47.92
2023-04-17T17:56:35.499Z,48.39
2023-04-17T17:59:02.852Z,48.57
2023-04-17T18:01:30.289Z,48.92
2023-04-17T18:03:58.245Z,49.15
2023-04-17T18:06:50.608Z,49.49
2023-04-17T18:09:18.044Z,49.21
2023-04-17T18:11:47.553Z,49.87
2023-04-17T18:14:14.967Z,49.95
2023-04-17T18:16:43.102Z,51.31
2023-04-17T18:19:10.606Z,50.72
2023-04-17T18:21:38.549Z,51.25
2023-04-17T18:24:06.380Z,51.02
2023-04-17T18:26:36.486Z,51.10
2023-04-17T18:29:03.806Z,51.32
2023-04-17T18:31:31.317Z,51.54
2023-04-17T18:34:02.478Z,52.20
2023-04-17T18:36:30.814Z,52.78
2023-04-17T18:38:58.793Z,53.04
2023-04-17T18:41:27.033Z,52.74
2023-04-17T18:43:54.425Z,53.08
2023-04-17T18:46:23.819Z,53.13
2023-04-17T18:48:51.311Z,53.12
2023-04-17T18:51:18.734Z,53.44
2023-04-17T18:53:46.584Z,54.14
2023-04-17T18:56:15.149Z,54.23
2023-04-17T18:58:43.346Z,53.94
2023-04-17T19:01:11.608Z,53.69
2023-04-17T19:03:40.437Z,54.09
2023-04-17T19:06:08.234Z,54.45
2023-04-17T19:08:38.193Z,54.68
2023-04-17T19:11:07.249Z,54.86
2023-04-17T19:13:34.866Z,54.58
2023-04-17T19:16:02.288Z,55.00
2023-04-17T19:18:29.790Z,54.65
2023-04-17T19:20:57.226Z,54.33
2023-04-17T19:23:26.010Z,54.46
2023-04-17T19:25:58.767Z,54.35
2023-04-17T19:28:28.366Z,54.76
2023-04-17T19:30:58.630Z,54.96
2023-04-17T19:33:27.287Z,55.15
2023-04-17T19:35:54.917Z,55.52
2023-04-17T19:38:26.132Z,55.64
2023-04-17T19:41:19.372Z,55.95
2023-04-17T19:43:53.696Z,56.12
2023-04-17T19:46:25.219Z,56.24
2023-04-17T19:48:53.023Z,56.17
2023-04-17T19:51:20.451Z,55.92
2023-04-17T19:53:49.343Z,56.19
2023-04-17T19:56:16.971Z,55.72
2023-04-17T19:58:44.441Z,55.98
2023-04-17T20:01:12.040Z,56.00
2023-04-17T20:03:42.971Z,56.32
2023-04-17T20:06:10.750Z,56.26
2023-04-17T20:08:38.250Z,56.36
2023-04-17T20:11:06.494Z,56.80
2023-04-17T20:13:35.035Z,56.65
2023-04-17T20:16:04.024Z,56.75
2023-04-17T20:18:34.716Z,57.23
2023-04-17T20:21:02.557Z,57.84
2023-04-17T20:23:30.322Z,57.60
2023-04-17T20:25:58.520Z,57.97
2023-04-17T20:28:29.032Z,58.27
2023-04-17T20:30:57.847Z,58.74
2023-04-17T20:33:25.860Z,58.18
2023-04-17T20:35:53.794Z,58.38
2023-04-17T20:38:21.329Z,58.71
2023-04-17T20:40:48.679Z,58.47
2023-04-17T20:43:16.954Z,58.86
2023-04-17T20:45:44.707Z,59.13
2023-04-17T20:48:12.190Z,58.68
2023-04-17T20:50:39.621Z,59.57
2023-04-17T20:53:06.940Z,59.16
2023-04-17T20:55:36.923Z,58.92
2023-04-17T20:58:04.283Z,59.44
2023-04-17T21:00:31.738Z,59.95
2023-04-17T21:02:59.062Z,59.79
2023-04-17T21:05:27.244Z,59.70
2023-04-17T21:07:57.925Z,60.05
2023-04-17T21:10:25.661Z,59.86
2023-04-17T21:12:53.349Z,59.98
2023-04-17T21:15:21.079Z,59.80
2023-04-17T21:17:48.587Z,59.82
2023-04-17T21:20:16.116Z,59.80
2023-04-17T21:22:43.509Z,60.17
2023-04-17T21:25:11.429Z,60.08
2023-04-17T21:27:39.675Z,59.79
2023-04-17T21:30:08.341Z,59.86
2023-04-17T21:32:35.864Z,59.57
2023-04-17T21:35:03.468Z,59.96
2023-04-17T21:37:30.995Z,59.95
2023-04-17T21:39:58.560Z,60.12
2023-04-17T21:42:26.194Z,60.51
2023-04-17T21:44:53.691Z,60.60
2023-04-17T21:47:21.246Z,60.72
2023-04-17T21:49:49.327Z,60.67
2023-04-17T21:52:17.063Z,60.75
2023-04-17T21:54:44.596Z,60.94
2023-04-17T21:58:08.319Z,60.52
2023-04-17T22:00:54.717Z,60.67
2023-04-17T22:03:23.061Z,60.64
2023-04-17T22:05:53.320Z,60.76
2023-04-17T22:08:21.025Z,60.79
2023-04-17T22:10:48.597Z,60.86
2023-04-17T22:13:16.160Z,60.57
2023-04-17T22:15:44.575Z,60.85
2023-04-17T22:18:12.154Z,60.87
2023-04-17T22:20:39.695Z,60.78
2023-04-17T22:23:07.399Z,61.02
2023-04-17T22:25:34.950Z,60.97
2023-04-17T22:28:02.510Z,61.41
2023-04-17T22:30:30.084Z,61.33
2023-04-17T22:32:57.713Z,61.07
2023-04-17T22:35:25.435Z,60.64
2023-04-17T22:37:52.976Z,60.88
2023-04-17T22:40:20.689Z,61.77
2023-04-17T22:42:50.540Z,61.40
2023-04-17T22:45:18.292Z,61.71
2023-04-17T22:47:45.897Z,61.56
2023-04-17T22:50:14.319Z,61.51
2023-04-17T22:52:41.976Z,61.51
2023-04-17T22:55:09.897Z,61.22
2023-04-17T22:57:37.525Z,61.20
2023-04-17T23:00:07.546Z,60.99
2023-04-17T23:02:35.987Z,61.50
2023-04-17T23:05:03.702Z,61.43
2023-04-17T23:07:31.522Z,61.94
2023-04-17T23:09:59.166Z,61.94
2023-04-17T23:12:26.776Z,61.91
2023-04-17T23:14:54.324Z,61.93
2023-04-17T23:17:21.823Z,62.50
2023-04-17T23:19:49.441Z,62.09
2023-04-17T23:22:17.078Z,62.81
2023-04-17T23:24:44.680Z,62.70
2023-04-17T23:27:12.240Z,62.68
2023-04-17T23:29:39.733Z,63.63
2023-04-17T23:32:07.679Z,63.83
2023-04-17T23:34:35.973Z,63.89
2023-04-17T23:37:03.722Z,63.76
2023-04-17T23:39:31.280Z,63.51
2023-04-17T23:42:00.542Z,63.07
2023-04-17T23:44:28.112Z,63.01
2023-04-17T23:46:56.075Z,62.74
2023-04-17T23:49:23.694Z,63.00
2023-04-17T23:51:51.205Z,63.53
2023-04-17T23:54:18.775Z,63.56
2023-04-17T23:56:46.360Z,63.18
2023-04-17T23:59:13.921Z,63.36
